createdAt,value
2019-01-26T00:01:21.509Z,99554.54
2019-01-26T00:03:53.274Z,99545.23
2019-01-26T00:06:24.083Z,99543.02
2019-01-26T00:08:57.431Z,99535.77
2019-01-26T00:11:28.436Z,99535.73
2019-01-26T00:14:00.404Z,99520.23
2019-01-26T00:16:31.025Z,99517.50
2019-01-26T00:19:02.494Z,99508.14
2019-01-26T00:21:34.033Z,99497.59
2019-01-26T00:24:06.121Z,99487.20
2019-01-26T00:26:37.331Z,99482.25
2019-01-26T00:29:08.029Z,99477.11
2019-01-26T00:31:38.756Z,99469.05
2019-01-26T00:34:09.597Z,99454.45
2019-01-26T00:36:43.226Z,99457.74
2019-01-26T00:39:14.026Z,99436.84
2019-01-26T00:41:44.899Z,99449.90
2019-01-26T00:44:15.677Z,99448.47
2019-01-26T00:46:46.489Z,99450.70
2019-01-26T00:49:16.926Z,99446.66
2019-01-26T00:51:47.425Z,99434.39
2019-01-26T00:54:18.489Z,99422.93
2019-01-26T00:56:51.869Z,99420.05
2019-01-26T00:59:22.301Z,99426.06
2019-01-26T01:01:52.844Z,99414.01
2019-01-26T01:04:23.412Z,99420.08
2019-01-26T01:06:53.838Z,99420.78
2019-01-26T01:09:24.605Z,99407.58
2019-01-26T01:12:13.727Z,99396.00
2019-01-26T01:14:44.201Z,99389.31
2019-01-26T01:17:14.802Z,99389.67
2019-01-26T01:19:48.709Z,99381.59
2019-01-26T01:22:19.633Z,99382.66
2019-01-26T01:24:50.278Z,99385.63
2019-01-26T01:27:22.915Z,99392.57
2019-01-26T01:29:55.666Z,99393.05
2019-01-26T01:32:27.997Z,99380.52
2019-01-26T01:34:58.795Z,99372.88
2019-01-26T01:37:29.259Z,99376.14
2019-01-26T01:40:03.336Z,99370.02
2019-01-26T01:42:36.340Z,99373.98
2019-01-26T01:45:09.678Z,99366.72
2019-01-26T01:47:41.919Z,99357.83
2019-01-26T01:50:13.727Z,99357.67
2019-01-26T01:52:47.053Z,99355.19
2019-01-26T01:55:21.472Z,99358.61
2019-01-26T01:57:57.414Z,99362.54
2019-01-26T02:00:28.291Z,99352.67
2019-01-26T02:03:02.999Z,99343.17
2019-01-26T02:05:31.158Z,99338.59
2019-01-26T02:08:06.291Z,99340.25
2019-01-26T02:10:36.927Z,99336.30
2019-01-26T02:13:10.930Z,99345.39
2019-01-26T02:15:42.024Z,99339.57
2019-01-26T02:18:12.467Z,99334.70
2019-01-26T02:20:43.173Z,99323.42
2019-01-26T02:23:13.823Z,99326.38
2019-01-26T02:25:53.325Z,99324.59
2019-01-26T02:28:27.936Z,99317.11
2019-01-26T02:30:58.542Z,99313.53
2019-01-26T02:33:36.023Z,99305.13
2019-01-26T02:36:10.402Z,99302.77
2019-01-26T02:38:41.499Z,99291.73
2019-01-26T02:41:13.234Z,99288.38
2019-01-26T02:43:43.907Z,99279.22
2019-01-26T02:46:14.639Z,99269.45
2019-01-26T02:48:45.679Z,99269.99
2019-01-26T02:51:50.398Z,99261.44
2019-01-26T02:54:21.189Z,99276.06
2019-01-26T02:56:51.987Z,99264.30
2019-01-26T02:59:28.792Z,99256.52
2019-01-26T03:02:12.451Z,99266.43
2019-01-26T03:04:44.872Z,99260.35
2019-01-26T03:07:24.059Z,99261.36
2019-01-26T03:09:54.828Z,99257.70
2019-01-26T03:12:25.371Z,99250.84
2019-01-26T03:15:12.612Z,99255.83
2019-01-26T03:18:16.629Z,99244.31
2019-01-26T03:21:15.007Z,99228.94
2019-01-26T03:24:43.164Z,99228.00
2019-01-26T03:27:23.873Z,99224.41
2019-01-26T03:30:00.561Z,99222.68
2019-01-26T03:32:34.292Z,99220.74
2019-01-26T03:35:05.467Z,99220.82
2019-01-26T03:37:36.464Z,99214.45
2019-01-26T03:40:34.414Z,99227.62
2019-01-26T03:43:14.308Z,99230.96
2019-01-26T03:45:47.145Z,99212.91
2019-01-26T03:48:31.606Z,99225.64
2019-01-26T03:51:07.047Z,99211.19
2019-01-26T03:53:37.728Z,99201.70
2019-01-26T03:56:11.256Z,99214.62
2019-01-26T03:58:41.794Z,99218.97
2019-01-26T04:01:12.257Z,99215.78
2019-01-26T04:03:43.418Z,99216.72
2019-01-26T04:06:14.058Z,99222.78
2019-01-26T04:08:46.652Z,99219.92
2019-01-26T04:11:17.188Z,99215.08
2019-01-26T04:13:47.869Z,99219.34
2019-01-26T04:16:18.394Z,99212.27
2019-01-26T04:18:48.860Z,99207.29
2019-01-26T04:21:19.493Z,99194.38
2019-01-26T04:23:49.933Z,99206.34
2019-01-26T04:26:23.130Z,99207.15
2019-01-26T04:28:53.586Z,99205.72
2019-01-26T04:31:24.135Z,99199.98
2019-01-26T04:33:59.013Z,99209.09
2019-01-26T04:36:34.808Z,99202.08
2019-01-26T04:39:08.868Z,99200.90
2019-01-26T04:41:39.332Z,99199.82
2019-01-26T04:44:09.864Z,99201.37
2019-01-26T04:46:43.552Z,99196.53
2019-01-26T04:49:14.378Z,99192.40
2019-01-26T04:51:49.514Z,99196.22
2019-01-26T04:54:20.173Z,99194.69
2019-01-26T04:56:53.026Z,99194.67
2019-01-26T04:59:23.878Z,99199.04
2019-01-26T05:01:55.986Z,99194.98
2019-01-26T05:04:26.477Z,99194.74
2019-01-26T05:06:57.017Z,99195.59
2019-01-26T05:09:27.818Z,99191.53
2019-01-26T05:11:58.330Z,99188.32
2019-01-26T05:14:28.784Z,99187.39
2019-01-26T05:16:59.215Z,99193.51
2019-01-26T05:19:30.514Z,99183.53
2019-01-26T05:22:01.193Z,99186.41
2019-01-26T05:24:34.589Z,99198.38
2019-01-26T05:27:05.524Z,99197.20
2019-01-26T05:29:40.284Z,99196.70
2019-01-26T05:32:10.778Z,99197.95
2019-01-26T05:34:41.338Z,99199.42
2019-01-26T05:37:11.968Z,99202.91
2019-01-26T05:39:42.875Z,99200.56
2019-01-26T05:42:13.321Z,99198.23
2019-01-26T05:44:44.142Z,99205.05
2019-01-26T05:47:17.718Z,99206.36
2019-01-26T05:49:49.256Z,99216.73
2019-01-26T05:52:19.821Z,99212.34
2019-01-26T05:54:50.723Z,99202.94
2019-01-26T05:57:21.607Z,99196.54
2019-01-26T05:59:52.423Z,99208.99
2019-01-26T06:02:22.986Z,99211.20
2019-01-26T06:04:53.451Z,99206.81
2019-01-26T06:07:24.086Z,99206.93
2019-01-26T06:09:56.608Z,99207.48
2019-01-26T06:12:29.759Z,99206.33
2019-01-26T06:15:02.973Z,99210.36
2019-01-26T06:17:33.742Z,99209.37
2019-01-26T06:20:04.515Z,99212.73
2019-01-26T06:22:46.259Z,99200.73
2019-01-26T06:25:17.700Z,99197.77
2019-01-26T06:27:57.753Z,99203.84
2019-01-26T06:30:29.108Z,99200.19
2019-01-26T06:33:06.323Z,99194.20
2019-01-26T06:35:36.830Z,99185.82
2019-01-26T06:38:24.512Z,99196.42
2019-01-26T06:40:51.104Z,99201.33
2019-01-26T06:43:28.436Z,99193.53
2019-01-26T06:46:13.418Z,99201.64
2019-01-26T06:48:45.818Z,99203.57
2019-01-26T06:51:16.287Z,99194.53
2019-01-26T06:53:49.545Z,99190.62
2019-01-26T06:56:25.157Z,99191.72
2019-01-26T06:58:58.421Z,99188.09
2019-01-26T07:01:31.799Z,99193.80
2019-01-26T07:04:02.330Z,99203.21
2019-01-26T07:06:42.862Z,99199.02
2019-01-26T07:09:17.844Z,99196.66
2019-01-26T07:11:50.481Z,99190.78
2019-01-26T07:14:29.963Z,99195.63
2019-01-26T07:17:03.231Z,99197.39
2019-01-26T07:19:33.744Z,99202.76
2019-01-26T07:22:12.874Z,99199.78
2019-01-26T07:24:45.846Z,99194.89
2019-01-26T07:27:29.567Z,99193.64
2019-01-26T07:30:02.730Z,99201.30
2019-01-26T07:32:36.810Z,99200.61
2019-01-26T07:35:17.129Z,99198.09
2019-01-26T07:37:53.505Z,99197.61
2019-01-26T07:40:24.242Z,99198.47
2019-01-26T07:42:55.187Z,99199.53
2019-01-26T07:45:28.576Z,99198.68
2019-01-26T07:47:59.710Z,99194.43
2019-01-26T07:50:32.377Z,99187.30
2019-01-26T07:53:06.326Z,99186.61
2019-01-26T07:55:37.151Z,99187.55
2019-01-26T07:58:08.185Z,99191.16
2019-01-26T08:00:40.004Z,99192.48
2019-01-26T08:03:10.606Z,99183.51
2019-01-26T08:05:43.339Z,99187.83
2019-01-26T08:08:18.039Z,99182.77
2019-01-26T08:10:54.755Z,99177.23
2019-01-26T08:13:25.376Z,99174.21
2019-01-26T08:15:59.407Z,99178.45
2019-01-26T08:18:30.498Z,99182.36
2019-01-26T08:21:01.241Z,99177.09
2019-01-26T08:23:34.356Z,99185.13
2019-01-26T08:26:06.807Z,99177.48
2019-01-26T08:28:41.876Z,99182.26
2019-01-26T08:31:25.376Z,99168.19
2019-01-26T08:34:03.690Z,99173.03
2019-01-26T08:36:41.111Z,99170.87
2019-01-26T08:39:36.113Z,99165.72
2019-01-26T08:42:20.247Z,99161.16
2019-01-26T08:45:20.765Z,99158.41
2019-01-26T08:48:31.899Z,99163.83
2019-01-26T08:51:25.041Z,99161.71
2019-01-26T08:53:56.857Z,99162.00
2019-01-26T08:56:29.256Z,99158.38
2019-01-26T08:59:13.655Z,99156.82
2019-01-26T09:01:44.420Z,99151.55
2019-01-26T09:04:33.291Z,99145.15
2019-01-26T09:07:06.763Z,99143.77
2019-01-26T09:09:41.226Z,99151.59
2019-01-26T09:12:21.283Z,99144.22
2019-01-26T09:15:00.932Z,99140.00
2019-01-26T09:17:31.769Z,99141.63
2019-01-26T09:20:06.513Z,99141.00
2019-01-26T09:22:37.098Z,99147.31
2019-01-26T09:25:28.380Z,99149.59
2019-01-26T09:28:03.046Z,99149.59
2019-01-26T09:30:35.440Z,99143.41
2019-01-26T09:33:09.257Z,99136.66
2019-01-26T09:35:42.768Z,99146.31
2019-01-26T09:38:13.255Z,99147.91
2019-01-26T09:40:44.920Z,99146.35
2019-01-26T09:43:19.575Z,99153.63
2019-01-26T09:45:58.168Z,99137.85
2019-01-26T09:48:46.178Z,99154.20
2019-01-26T09:51:14.709Z,99149.75
2019-01-26T09:53:48.862Z,99134.18
2019-01-26T09:56:22.029Z,99130.58
2019-01-26T09:58:56.966Z,99125.17
2019-01-26T10:01:33.295Z,99122.45
2019-01-26T10:04:07.979Z,99127.17
2019-01-26T10:06:38.743Z,99133.48
2019-01-26T10:09:15.107Z,99131.30
2019-01-26T10:11:47.270Z,99130.93
2019-01-26T10:14:18.022Z,99125.97
2019-01-26T10:16:50.481Z,99117.33
2019-01-26T10:19:30.043Z,99116.48
2019-01-26T10:22:03.741Z,99121.36
2019-01-26T10:24:34.357Z,99112.28
2019-01-26T10:27:05.305Z,99111.94
2019-01-26T10:59:47.151Z,99066.51
2019-01-26T11:02:17.884Z,99058.89
2019-01-26T11:04:56.225Z,99061.88
2019-01-26T11:07:34.604Z,99066.98
2019-01-26T11:10:08.755Z,99054.09
2019-01-26T11:12:46.244Z,99055.30
2019-01-26T11:15:23.744Z,99048.03
2019-01-26T11:17:54.356Z,99049.13
2019-01-26T11:20:25.201Z,99038.20
2019-01-26T11:23:01.292Z,99044.03
2019-01-26T11:25:31.881Z,99039.31
2019-01-26T11:28:06.749Z,99040.53
2019-01-26T11:30:38.573Z,99025.67
2019-01-26T11:33:09.042Z,99019.33
2019-01-26T11:35:39.625Z,99026.14
2019-01-26T11:38:23.421Z,99023.80
2019-01-26T11:40:53.923Z,99017.64
2019-01-26T11:43:27.131Z,99009.87
2019-01-26T11:46:18.371Z,99005.56
2019-01-26T11:49:02.296Z,99014.70
2019-01-26T11:51:42.939Z,98999.17
2019-01-26T11:54:16.015Z,98996.41
2019-01-26T11:57:03.820Z,98990.45
2019-01-26T11:59:34.429Z,98990.66
2019-01-26T12:02:29.919Z,98988.00
2019-01-26T12:05:09.165Z,98985.81
2019-01-26T12:07:40.192Z,98987.84
2019-01-26T12:10:14.551Z,98980.19
2019-01-26T12:12:47.478Z,98977.42
2019-01-26T12:15:23.240Z,98972.58
2019-01-26T12:17:54.227Z,98968.05
2019-01-26T12:20:30.330Z,98975.56
2019-01-26T12:23:01.025Z,98963.20
2019-01-26T12:25:33.502Z,98968.36
2019-01-26T12:28:04.384Z,98968.73
2019-01-26T12:30:35.548Z,98965.59
2019-01-26T12:33:12.287Z,98967.47
2019-01-26T12:35:44.212Z,98967.73
2019-01-26T12:38:17.845Z,98966.84
2019-01-26T12:40:51.664Z,98972.23
2019-01-26T12:43:31.059Z,98972.85
2019-01-26T12:46:07.700Z,98971.17
2019-01-26T12:48:38.504Z,98960.16
2019-01-26T12:51:18.790Z,98966.94
2019-01-26T12:53:50.551Z,98968.03
2019-01-26T12:56:28.516Z,98965.09
2019-01-26T12:59:00.442Z,98953.89
2019-01-26T13:01:37.677Z,98956.50
2019-01-26T13:04:13.001Z,98951.33
2019-01-26T13:06:48.857Z,98958.94
2019-01-26T13:09:19.696Z,98956.86
2019-01-26T13:12:00.054Z,98948.91
2019-01-26T13:14:34.827Z,98951.19
2019-01-26T13:17:09.329Z,98949.34
2019-01-26T13:19:40.246Z,98961.73
2019-01-26T13:22:11.103Z,98950.39
2019-01-26T13:24:45.335Z,98949.78
2019-01-26T13:27:19.266Z,98946.80
2019-01-26T13:29:49.878Z,98946.89
2019-01-26T13:32:21.969Z,98947.89
2019-01-26T13:35:03.330Z,98950.98
2019-01-26T13:37:35.563Z,98944.49
2019-01-26T13:40:10.357Z,98953.98
2019-01-26T13:42:41.731Z,98950.61
2019-01-26T13:45:26.729Z,98958.17
2019-01-26T13:48:03.707Z,98951.78
2019-01-26T13:50:40.417Z,98959.56
2019-01-26T13:53:13.874Z,98958.22
2019-01-26T13:55:47.698Z,98959.23
2019-01-26T13:58:26.186Z,98954.59
2019-01-26T14:01:12.671Z,98955.23
2019-01-26T14:03:50.475Z,98954.19
2019-01-26T14:06:29.855Z,98962.22
2019-01-26T14:09:21.762Z,98962.33
2019-01-26T14:12:04.160Z,98950.89
2019-01-26T14:14:40.809Z,98961.81
2019-01-26T14:17:20.457Z,98959.61
2019-01-26T14:19:56.388Z,98966.70
2019-01-26T14:22:31.685Z,98960.12
2019-01-26T14:25:05.246Z,98955.03
2019-01-26T14:27:37.251Z,98953.82
2019-01-26T14:30:25.390Z,98948.91
2019-01-26T14:32:57.189Z,98949.27
2019-01-26T14:35:33.864Z,98951.41
2019-01-26T14:38:06.212Z,98957.25
2019-01-26T14:40:46.201Z,98962.84
2019-01-26T14:43:17.498Z,98956.53
2019-01-26T14:45:48.414Z,98958.78
2019-01-26T14:48:21.386Z,98954.75
2019-01-26T14:50:56.244Z,98959.47
2019-01-26T14:53:35.139Z,98958.04
2019-01-26T14:56:07.466Z,98957.84
2019-01-26T14:58:39.341Z,98957.53
2019-01-26T15:01:14.504Z,98958.73
2019-01-26T15:03:46.794Z,98962.34
2019-01-26T15:06:30.756Z,98962.23
2019-01-26T15:09:20.131Z,98966.30
2019-01-26T15:11:54.533Z,98968.33
2019-01-26T15:14:35.670Z,98969.42
2019-01-26T15:17:06.551Z,98961.96
2019-01-26T15:20:05.952Z,98967.50
2019-01-26T15:23:04.020Z,98967.76
2019-01-26T15:25:43.115Z,98963.95
2019-01-26T15:28:34.710Z,98966.09
2019-01-26T15:31:05.291Z,98962.91
2019-01-26T15:33:43.848Z,98965.58
2019-01-26T15:36:16.999Z,98967.31
2019-01-26T15:38:48.125Z,98970.96
2019-01-26T15:41:24.640Z,98968.19
2019-01-26T15:43:57.315Z,98966.81
2019-01-26T15:46:36.739Z,98974.58
2019-01-26T15:49:12.399Z,98971.96
2019-01-26T15:51:59.390Z,98970.30
2019-01-26T15:54:31.267Z,98975.61
2019-01-26T15:57:01.981Z,98973.41
2019-01-26T15:59:32.587Z,98970.83
2019-01-26T16:02:03.417Z,98971.91
2019-01-26T16:04:39.097Z,98976.32
2019-01-26T16:07:13.432Z,98967.70
2019-01-26T16:09:48.906Z,98977.78
2019-01-26T16:12:19.787Z,98970.47
2019-01-26T16:14:55.710Z,98976.38
2019-01-26T16:17:26.390Z,98972.44
2019-01-26T16:20:08.424Z,98977.81
2019-01-26T16:22:45.204Z,98969.20
2019-01-26T16:25:29.170Z,98968.11
2019-01-26T16:28:01.008Z,98963.09
2019-01-26T16:30:35.027Z,98966.44
2019-01-26T16:33:06.032Z,98969.36
2019-01-26T16:35:38.749Z,98969.20
2019-01-26T16:38:12.306Z,98962.31
2019-01-26T16:40:48.339Z,98959.02
2019-01-26T16:43:19.258Z,98957.24
2019-01-26T16:45:52.195Z,98964.52
2019-01-26T16:48:25.002Z,98955.75
2019-01-26T16:51:18.922Z,98968.62
2019-01-26T16:54:12.367Z,98966.53
2019-01-26T16:56:54.031Z,98964.42
2019-01-26T16:59:27.880Z,98962.84
2019-01-26T17:01:58.706Z,98959.42
2019-01-26T17:04:36.848Z,98955.08
2019-01-26T17:07:07.465Z,98953.27
2019-01-26T17:09:37.869Z,98951.47
2019-01-26T17:12:10.968Z,98946.11
2019-01-26T17:14:41.465Z,98954.97
2019-01-26T17:17:11.941Z,98942.45
2019-01-26T17:19:51.674Z,98949.51
2019-01-26T17:22:31.626Z,98948.69
2019-01-26T17:25:05.588Z,98946.73
2019-01-26T17:27:44.183Z,98944.07
2019-01-26T17:30:20.855Z,98949.59
2019-01-26T17:32:51.588Z,98938.72
2019-01-26T17:35:23.571Z,98945.69
2019-01-26T17:37:54.174Z,98951.05
2019-01-26T17:40:28.039Z,98943.77
2019-01-26T17:43:25.928Z,98949.77
2019-01-26T17:46:07.923Z,98948.37
2019-01-26T17:48:41.368Z,98944.03
2019-01-26T17:51:19.821Z,98950.39
2019-01-26T17:53:48.952Z,98947.26
2019-01-26T17:56:19.765Z,98943.33
2019-01-26T17:58:53.016Z,98939.08
2019-01-26T18:01:26.604Z,98938.64
2019-01-26T18:03:57.363Z,98934.71
2019-01-26T18:06:28.350Z,98928.67
2019-01-26T18:09:06.461Z,98929.23
2019-01-26T18:11:42.676Z,98925.77
2019-01-26T18:14:24.394Z,98926.45
2019-01-26T18:17:00.239Z,98923.94
2019-01-26T18:19:41.023Z,98921.38
2019-01-26T18:22:14.233Z,98918.86
2019-01-26T18:24:45.242Z,98922.16
2019-01-26T18:27:16.003Z,98921.59
2019-01-26T18:29:46.548Z,98921.73
2019-01-26T18:32:17.449Z,98918.09
2019-01-26T18:34:51.288Z,98913.66
2019-01-26T18:37:25.218Z,98912.56
2019-01-26T18:39:57.189Z,98902.63
2019-01-26T18:42:33.223Z,98903.70
2019-01-26T18:45:07.757Z,98903.31
2019-01-26T18:47:38.307Z,98898.82
2019-01-26T18:50:14.025Z,98889.46
2019-01-26T18:52:50.550Z,98893.27
2019-01-26T18:55:21.542Z,98886.33
2019-01-26T18:57:52.051Z,98880.47
2019-01-26T19:00:36.594Z,98875.42
2019-01-26T19:03:53.524Z,98878.20
2019-01-26T19:06:27.328Z,98873.87
2019-01-26T19:09:00.750Z,98873.80
2019-01-26T19:11:35.364Z,98867.67
2019-01-26T19:14:06.170Z,98865.02
2019-01-26T19:16:39.767Z,98868.08
2019-01-26T19:19:13.784Z,98862.05
2019-01-26T19:21:49.688Z,98861.55
2019-01-26T19:24:22.600Z,98853.98
2019-01-26T19:27:06.384Z,98857.77
2019-01-26T19:29:39.774Z,98853.47
2019-01-26T19:32:11.098Z,98853.50
2019-01-26T19:34:41.640Z,98855.38
2019-01-26T19:37:14.226Z,98849.81
2019-01-26T19:39:47.247Z,98849.14
2019-01-26T19:42:21.605Z,98853.53
2019-01-26T19:44:57.882Z,98850.27
2019-01-26T19:47:28.837Z,98850.37
2019-01-26T19:50:01.624Z,98846.14
2019-01-26T19:52:35.368Z,98845.46
2019-01-26T19:55:09.146Z,98837.37
2019-01-26T19:57:44.175Z,98838.48
2019-01-26T20:00:16.676Z,98840.59
2019-01-26T20:02:47.518Z,98836.88
2019-01-26T20:05:22.393Z,98839.72
2019-01-26T20:07:53.363Z,98835.72
2019-01-26T20:10:24.856Z,98834.53
2019-01-26T20:12:59.842Z,98826.66
2019-01-26T20:15:32.214Z,98825.23
2019-01-26T20:18:08.942Z,98824.53
2019-01-26T20:20:44.960Z,98821.86
2019-01-26T20:23:15.850Z,98812.56
2019-01-26T20:25:46.992Z,98818.52
2019-01-26T20:28:23.860Z,98816.96
2019-01-26T20:31:04.171Z,98806.17
2019-01-26T20:33:38.235Z,98809.38
2019-01-26T20:36:11.869Z,98806.19
2019-01-26T20:38:45.264Z,98803.13
2019-01-26T20:41:25.761Z,98802.60
2019-01-26T20:43:59.316Z,98802.84
2019-01-26T20:46:40.934Z,98798.58
2019-01-26T20:49:17.118Z,98797.09
2019-01-26T20:51:49.660Z,98794.39
2019-01-26T20:54:21.880Z,98790.52
2019-01-26T20:57:00.472Z,98794.25
2019-01-26T20:59:29.316Z,98788.52
2019-01-26T21:02:00.073Z,98786.02
2019-01-26T21:04:32.555Z,98780.91
2019-01-26T21:07:03.660Z,98782.36
2019-01-26T21:09:34.084Z,98781.33
2019-01-26T21:12:05.045Z,98773.84
2019-01-26T21:14:40.043Z,98763.14
2019-01-26T21:17:11.224Z,98763.61
2019-01-26T21:19:42.773Z,98751.51
2019-01-26T21:22:15.070Z,98744.72
2019-01-26T21:24:46.207Z,98750.44
2019-01-26T21:27:17.344Z,98748.88
2019-01-26T21:29:48.956Z,98753.80
2019-01-26T21:32:19.812Z,98746.16
2019-01-26T21:34:57.627Z,98743.41
2019-01-26T21:37:40.321Z,98744.65
2019-01-26T21:40:22.474Z,98744.44
2019-01-26T21:43:06.063Z,98736.89
2019-01-26T21:45:43.315Z,98730.00
2019-01-26T21:48:22.663Z,98731.41
2019-01-26T21:51:16.348Z,98725.77
2019-01-26T21:53:54.426Z,98727.39
2019-01-26T21:56:27.883Z,98735.28
2019-01-26T21:58:58.410Z,98734.05
2019-01-26T22:01:34.293Z,98727.73
2019-01-26T22:04:04.940Z,98726.20
2019-01-26T22:06:39.055Z,98735.44
2019-01-26T22:09:11.428Z,98738.42
2019-01-26T22:11:41.978Z,98734.25
2019-01-26T22:14:14.670Z,98727.38
2019-01-26T22:16:45.258Z,98734.28
2019-01-26T22:19:21.782Z,98731.08
2019-01-26T22:21:48.384Z,98729.20
2019-01-26T22:24:19.426Z,98730.36
2019-01-26T22:26:59.574Z,98730.23
2019-01-26T22:29:31.379Z,98723.41
2019-01-26T22:32:06.224Z,98724.50
2019-01-26T22:34:42.048Z,98717.06
2019-01-26T22:37:12.442Z,98716.41
2019-01-26T22:39:43.095Z,98713.23
2019-01-26T22:42:13.670Z,98708.64
2019-01-26T22:44:46.927Z,98708.91
2019-01-26T22:47:17.441Z,98702.61
2019-01-26T22:49:47.964Z,98696.72
2019-01-26T22:52:20.838Z,98695.87
2019-01-26T22:54:51.363Z,98694.84
2019-01-26T22:57:21.885Z,98696.45
2019-01-26T22:59:53.142Z,98693.72
2019-01-26T23:02:25.921Z,98695.01
2019-01-26T23:05:53.390Z,98690.87
2019-01-26T23:08:29.336Z,98682.72
2019-01-26T23:12:06.462Z,98676.72
2019-01-26T23:15:23.956Z,98670.35
2019-01-26T23:19:01.326Z,98672.38
2019-01-26T23:22:18.307Z,98649.97
2019-01-26T23:25:44.909Z,98653.53
2019-01-26T23:28:58.592Z,98647.58
2019-01-26T23:31:29.386Z,98650.64
2019-01-26T23:34:00.027Z,98645.56
2019-01-26T23:36:30.777Z,98644.97
2019-01-26T23:39:02.368Z,98642.08
2019-01-26T23:41:33.327Z,98637.11
2019-01-26T23:44:06.330Z,98634.16
2019-01-26T23:46:37.024Z,98634.41
2019-01-26T23:49:07.459Z,98622.88
2019-01-26T23:51:41.397Z,98614.28
2019-01-26T23:54:12.269Z,98614.48
2019-01-26T23:56:42.795Z,98611.93
2019-01-26T23:59:16.537Z,98613.83
